createdAt,value
2019-03-06T00:00:14.266Z,100812.12
2019-03-06T00:02:41.523Z,100812.60
2019-03-06T00:05:08.739Z,100816.03
2019-03-06T00:07:36.007Z,100814.25
2019-03-06T00:10:03.602Z,100811.70
2019-03-06T00:12:30.842Z,100809.58
2019-03-06T00:14:58.039Z,100815.63
2019-03-06T00:17:25.234Z,100813.41
2019-03-06T00:19:52.418Z,100815.66
2019-03-06T00:22:19.634Z,100818.28
2019-03-06T00:24:47.420Z,100825.34
2019-03-06T00:27:14.638Z,100827.09
2019-03-06T00:29:41.843Z,100834.48
2019-03-06T00:32:09.091Z,100828.94
2019-03-06T00:34:36.299Z,100836.77
2019-03-06T00:37:03.515Z,100834.61
2019-03-06T00:39:38.271Z,100839.83
2019-03-06T00:42:05.491Z,100837.64
2019-03-06T00:44:32.675Z,100836.42
2019-03-06T00:46:59.917Z,100832.12
2019-03-06T00:49:27.126Z,100829.91
2019-03-06T00:51:54.403Z,100832.02
2019-03-06T00:54:21.860Z,100831.24
2019-03-06T00:56:49.078Z,100827.28
2019-03-06T00:59:16.275Z,100828.56
2019-03-06T01:01:43.580Z,100822.91
2019-03-06T01:04:10.743Z,100828.62
2019-03-06T01:06:38.017Z,100827.66
2019-03-06T01:09:05.622Z,100833.39
2019-03-06T01:11:32.827Z,100831.62
2019-03-06T01:14:00.059Z,100827.34
2019-03-06T01:16:27.361Z,100823.37
2019-03-06T01:18:54.742Z,100815.48
2019-03-06T01:21:21.955Z,100812.42
2019-03-06T01:23:49.259Z,100820.28
2019-03-06T01:26:16.436Z,100819.03
2019-03-06T01:28:43.843Z,100819.94
2019-03-06T01:31:11.009Z,100823.03
2019-03-06T01:33:57.895Z,100827.74
2019-03-06T01:36:31.988Z,100828.66
2019-03-06T01:39:12.448Z,100824.25
2019-03-06T01:41:46.844Z,100833.86
2019-03-06T01:44:18.253Z,100828.59
2019-03-06T01:46:45.443Z,100827.71
2019-03-06T01:49:12.610Z,100830.80
2019-03-06T01:51:39.834Z,100828.19
2019-03-06T01:54:06.996Z,100826.87
2019-03-06T01:56:34.234Z,100822.56
2019-03-06T01:59:01.435Z,100819.87
2019-03-06T02:01:28.939Z,100817.25
2019-03-06T02:03:56.106Z,100817.78
2019-03-06T02:06:23.259Z,100812.55
2019-03-06T02:08:50.471Z,100809.92
2019-03-06T02:11:17.683Z,100810.83
2019-03-06T02:13:44.951Z,100806.86
2019-03-06T02:16:12.176Z,100808.14
2019-03-06T02:18:39.770Z,100804.67
2019-03-06T02:21:06.925Z,100801.52
2019-03-06T02:23:34.133Z,100797.13
2019-03-06T02:26:01.310Z,100793.63
2019-03-06T02:28:28.565Z,100794.53
2019-03-06T02:30:55.755Z,100789.69
2019-03-06T02:33:23.172Z,100784.31
2019-03-06T02:35:50.387Z,100786.00
2019-03-06T02:38:17.596Z,100781.23
2019-03-06T02:40:44.865Z,100777.29
2019-03-06T02:43:12.087Z,100769.86
2019-03-06T02:45:39.471Z,100774.23
2019-03-06T02:48:06.850Z,100775.98
2019-03-06T02:50:34.159Z,100778.10
2019-03-06T02:53:01.343Z,100780.22
2019-03-06T02:55:28.515Z,100780.16
2019-03-06T02:58:00.803Z,100774.07
2019-03-06T03:00:56.735Z,100770.58
2019-03-06T03:03:44.949Z,100773.73
2019-03-06T03:06:19.097Z,100769.89
2019-03-06T03:08:46.345Z,100769.92
2019-03-06T03:11:13.666Z,100774.70
2019-03-06T03:13:40.895Z,100770.33
2019-03-06T03:16:08.303Z,100768.98
2019-03-06T03:18:35.480Z,100763.30
2019-03-06T03:21:02.656Z,100760.34
2019-03-06T03:23:29.881Z,100751.20
2019-03-06T03:25:57.065Z,100757.25
2019-03-06T03:28:24.342Z,100754.22
2019-03-06T03:30:51.567Z,100762.03
2019-03-06T03:33:18.759Z,100756.81
2019-03-06T03:35:45.996Z,100758.97
2019-03-06T03:38:13.234Z,100751.60
2019-03-06T03:40:40.444Z,100747.94
2019-03-06T03:43:07.678Z,100744.28
2019-03-06T03:45:34.858Z,100736.00
2019-03-06T03:48:02.069Z,100740.48
2019-03-06T03:50:29.275Z,100728.78
2019-03-06T03:52:56.447Z,100727.83
2019-03-06T03:55:23.790Z,100727.03
2019-03-06T03:57:50.956Z,100732.27
2019-03-06T04:00:18.284Z,100736.61
2019-03-06T04:02:45.479Z,100734.96
2019-03-06T04:05:12.668Z,100736.27
2019-03-06T04:07:39.867Z,100733.31
2019-03-06T04:10:08.003Z,100728.57
2019-03-06T04:12:35.214Z,100732.09
2019-03-06T04:15:02.606Z,100729.91
2019-03-06T04:17:29.789Z,100726.76
2019-03-06T04:19:56.997Z,100725.48
2019-03-06T04:22:24.173Z,100725.95
2019-03-06T04:24:51.463Z,100718.11
2019-03-06T04:27:18.639Z,100721.67
2019-03-06T04:29:45.809Z,100715.09
2019-03-06T04:32:13.060Z,100724.23
2019-03-06T04:34:40.383Z,100726.28
2019-03-06T04:37:07.600Z,100722.42
2019-03-06T04:39:34.783Z,100721.14
2019-03-06T04:42:01.986Z,100723.70
2019-03-06T04:44:29.171Z,100721.48
2019-03-06T04:46:56.403Z,100721.08
2019-03-06T04:49:23.602Z,100717.52
2019-03-06T04:51:50.783Z,100714.48
2019-03-06T04:54:18.048Z,100712.60
2019-03-06T04:56:45.284Z,100710.02
2019-03-06T04:59:12.472Z,100709.98
2019-03-06T05:01:39.632Z,100706.92
2019-03-06T05:04:06.829Z,100710.92
2019-03-06T05:06:33.978Z,100702.45
2019-03-06T05:09:01.305Z,100706.41
2019-03-06T05:11:28.470Z,100704.23
2019-03-06T05:13:55.652Z,100703.73
2019-03-06T05:16:36.182Z,100699.83
2019-03-06T05:19:04.833Z,100694.00
2019-03-06T05:21:32.274Z,100695.25
2019-03-06T05:23:59.701Z,100695.25
2019-03-06T05:26:30.523Z,100691.17
2019-03-06T05:28:57.849Z,100693.39
2019-03-06T05:31:25.323Z,100688.22
2019-03-06T05:33:52.730Z,100686.06
2019-03-06T05:37:04.992Z,100683.01
2019-03-06T05:39:32.162Z,100676.41
2019-03-06T05:41:59.480Z,100649.92
2019-03-06T05:44:26.682Z,100650.66
2019-03-06T05:46:54.076Z,100656.30
2019-03-06T05:49:21.333Z,100658.48
2019-03-06T05:51:48.586Z,100650.63
2019-03-06T05:54:15.814Z,100653.61
2019-03-06T05:56:43.491Z,100649.67
2019-03-06T05:59:10.816Z,100647.37
2019-03-06T06:01:38.054Z,100646.47
2019-03-06T06:04:05.219Z,100641.19
2019-03-06T06:06:32.450Z,100639.91
2019-03-06T06:08:59.703Z,100637.29
2019-03-06T06:11:27.031Z,100633.83
2019-03-06T06:13:55.013Z,100636.05
2019-03-06T06:16:22.275Z,100627.45
2019-03-06T06:18:49.569Z,100637.77
2019-03-06T06:21:45.487Z,100637.73
2019-03-06T06:24:16.074Z,100633.42
2019-03-06T06:26:44.465Z,100625.77
2019-03-06T06:29:11.738Z,100623.19
2019-03-06T06:31:39.341Z,100626.22
2019-03-06T06:34:06.781Z,100618.59
2019-03-06T06:36:34.207Z,100612.00
2019-03-06T06:39:02.501Z,100611.64
2019-03-06T06:41:29.808Z,100616.05
2019-03-06T06:43:58.472Z,100618.12
2019-03-06T06:46:25.751Z,100616.27
2019-03-06T06:48:53.282Z,100618.81
2019-03-06T06:52:08.623Z,100622.67
2019-03-06T06:54:50.142Z,100627.27
2019-03-06T06:57:31.694Z,100618.67
2019-03-06T07:00:54.695Z,100619.50
2019-03-06T07:04:24.568Z,100612.95
2019-03-06T07:07:11.434Z,100612.95
2019-03-06T07:09:56.937Z,100610.20
2019-03-06T07:12:33.511Z,100602.30
2019-03-06T07:15:23.354Z,100607.72
2019-03-06T07:18:22.483Z,100599.13
2019-03-06T07:20:55.699Z,100596.50
2019-03-06T07:23:45.496Z,100598.17
2019-03-06T07:26:32.230Z,100598.41
2019-03-06T07:29:22.242Z,100588.55
2019-03-06T07:32:12.682Z,100581.66
2019-03-06T07:35:03.433Z,100582.58
2019-03-06T07:37:41.642Z,100580.03
2019-03-06T07:40:19.399Z,100575.30
2019-03-06T07:43:02.907Z,100565.28
2019-03-06T07:45:57.168Z,100565.28
2019-03-06T07:48:44.270Z,100565.28
2019-03-06T07:51:49.035Z,100562.25
2019-03-06T07:54:35.295Z,100557.37
2019-03-06T07:57:27.699Z,100551.12
2019-03-06T07:59:55.363Z,100548.91
2019-03-06T08:02:36.403Z,100544.48
2019-03-06T08:05:03.676Z,100534.44
2019-03-06T08:07:33.770Z,100537.42
2019-03-06T08:10:05.682Z,100530.77
2019-03-06T08:12:41.270Z,100525.97
2019-03-06T08:15:35.989Z,100529.86
2019-03-06T08:18:22.735Z,100527.94
2019-03-06T08:21:04.521Z,100532.67
2019-03-06T08:23:56.466Z,100527.86
2019-03-06T08:26:23.724Z,100524.28
2019-03-06T08:28:51.283Z,100519.38
2019-03-06T08:31:39.849Z,100508.41
2019-03-06T08:34:07.041Z,100505.75
2019-03-06T08:36:34.385Z,100496.03
2019-03-06T08:39:01.820Z,100495.56
2019-03-06T08:41:29.015Z,100495.56
2019-03-06T08:43:56.428Z,100484.88
2019-03-06T08:46:41.020Z,100488.91
2019-03-06T08:49:34.045Z,100482.78
2019-03-06T08:52:09.747Z,100490.70
2019-03-06T08:54:46.523Z,100491.74
2019-03-06T08:57:45.546Z,100489.91
2019-03-06T09:00:34.975Z,100486.28
2019-03-06T09:03:24.509Z,100484.36
2019-03-06T09:06:11.612Z,100471.98
2019-03-06T09:08:56.930Z,100461.75
2019-03-06T09:11:55.848Z,100457.36
2019-03-06T09:14:48.517Z,100448.00
2019-03-06T09:17:42.246Z,100437.76
2019-03-06T09:20:40.920Z,100434.69
2019-03-06T09:23:29.742Z,100435.09
2019-03-06T09:26:15.429Z,100423.66
2019-03-06T09:29:00.490Z,100420.55
2019-03-06T09:31:29.812Z,100420.42
2019-03-06T09:34:13.019Z,100418.62
2019-03-06T09:37:02.274Z,100408.02
2019-03-06T09:39:44.969Z,100402.23
2019-03-06T09:42:36.302Z,100396.45
2019-03-06T09:45:09.770Z,100395.88
2019-03-06T09:47:51.401Z,100385.13
2019-03-06T09:50:40.825Z,100388.55
2019-03-06T09:53:16.371Z,100385.58
2019-03-06T09:56:21.128Z,100392.49
2019-03-06T09:59:02.834Z,100393.36
2019-03-06T10:01:48.178Z,100383.67
2019-03-06T10:04:33.617Z,100371.03
2019-03-06T10:07:14.175Z,100371.47
2019-03-06T10:10:06.919Z,100366.11
2019-03-06T10:13:12.154Z,100366.80
2019-03-06T10:16:14.218Z,100377.59
2019-03-06T10:19:03.591Z,100367.28
2019-03-06T10:21:30.845Z,100364.02
2019-03-06T10:23:58.031Z,100363.72
2019-03-06T10:27:28.666Z,100359.83
2019-03-06T10:29:55.852Z,100362.02
2019-03-06T10:32:23.289Z,100361.39
2019-03-06T10:34:50.588Z,100360.47
2019-03-06T10:37:18.170Z,100363.39
2019-03-06T10:39:45.579Z,100358.92
2019-03-06T10:42:12.880Z,100354.95
2019-03-06T10:44:40.269Z,100348.73
2019-03-06T10:47:07.501Z,100337.78
2019-03-06T10:49:35.090Z,100336.02
2019-03-06T10:52:02.377Z,100327.22
2019-03-06T10:54:29.725Z,100326.87
2019-03-06T10:56:56.964Z,100308.97
2019-03-06T10:59:24.359Z,100295.77
2019-03-06T11:01:51.525Z,100290.75
2019-03-06T11:04:50.493Z,100286.06
2019-03-06T11:07:17.755Z,100285.24
2019-03-06T11:09:45.204Z,100279.88
2019-03-06T11:12:12.605Z,100276.96
2019-03-06T11:14:40.391Z,100267.37
2019-03-06T11:17:07.784Z,100262.11
2019-03-06T11:19:35.472Z,100258.51
2019-03-06T11:22:02.745Z,100258.12
2019-03-06T11:24:30.061Z,100245.81
2019-03-06T11:26:57.383Z,100244.05
2019-03-06T11:29:24.698Z,100238.06
2019-03-06T11:31:51.874Z,100227.66
2019-03-06T11:34:19.115Z,100220.50
2019-03-06T11:36:46.331Z,100215.72
2019-03-06T11:39:13.524Z,100210.13
2019-03-06T11:41:40.701Z,100211.83
2019-03-06T11:44:07.935Z,100202.63
2019-03-06T11:46:35.128Z,100197.44
2019-03-06T11:49:06.513Z,100208.98
2019-03-06T11:51:39.399Z,100191.56
2019-03-06T11:54:06.961Z,100192.09
2019-03-06T11:56:34.216Z,100183.45
2019-03-06T11:59:01.423Z,100185.16
2019-03-06T12:01:30.090Z,100177.86
2019-03-06T12:03:57.923Z,100180.05
2019-03-06T12:06:27.917Z,100177.86
2019-03-06T12:08:55.460Z,100176.39
2019-03-06T12:11:22.737Z,100174.03
2019-03-06T12:13:50.149Z,100164.36
2019-03-06T12:16:18.457Z,100148.14
2019-03-06T12:18:49.612Z,100145.96
2019-03-06T12:21:16.882Z,100126.84
2019-03-06T12:23:44.266Z,100106.09
2019-03-06T12:26:11.547Z,100100.18
2019-03-06T12:28:38.771Z,100088.68
2019-03-06T12:31:07.581Z,100077.23
2019-03-06T12:33:34.867Z,100076.34
2019-03-06T12:36:02.067Z,100071.15
2019-03-06T12:38:29.237Z,100063.11
2019-03-06T12:40:56.430Z,100055.65
2019-03-06T12:43:23.748Z,100050.30
2019-03-06T12:46:23.964Z,100041.58
2019-03-06T12:48:57.670Z,100038.02
2019-03-06T12:51:25.055Z,100028.82
2019-03-06T12:53:52.283Z,100018.62
2019-03-06T12:56:19.484Z,100011.61
2019-03-06T12:58:46.652Z,99994.91
2019-03-06T13:01:13.866Z,99986.16
2019-03-06T13:03:41.039Z,99980.99
2019-03-06T13:06:08.336Z,99974.48
2019-03-06T13:08:35.863Z,99963.48
2019-03-06T13:11:03.077Z,99960.03
2019-03-06T13:15:59.339Z,99952.08
2019-03-06T13:18:26.604Z,99946.82
2019-03-06T13:20:53.862Z,99951.15
2019-03-06T13:23:21.558Z,99945.22
2019-03-06T13:25:49.015Z,99932.78
2019-03-06T13:28:16.402Z,99924.45
2019-03-06T13:30:43.663Z,99924.13
2019-03-06T13:33:22.672Z,99916.30
2019-03-06T13:35:49.868Z,99905.78
2019-03-06T13:38:17.219Z,99899.59
2019-03-06T13:40:44.589Z,99904.02
2019-03-06T13:43:13.183Z,99903.22
2019-03-06T13:45:41.716Z,99895.40
2019-03-06T13:48:09.211Z,99897.77
2019-03-06T13:50:36.427Z,99891.75
2019-03-06T13:53:03.694Z,99884.63
2019-03-06T13:55:30.993Z,99880.17
2019-03-06T13:57:58.371Z,99869.11
2019-03-06T14:01:03.319Z,99876.87
2019-03-06T14:03:30.625Z,99858.41
2019-03-06T14:05:58.245Z,99858.72
2019-03-06T14:08:25.478Z,99857.34
2019-03-06T14:10:52.810Z,99846.44
2019-03-06T14:13:20.012Z,99845.12
2019-03-06T14:15:53.894Z,99837.69
2019-03-06T14:18:17.994Z,99834.61
2019-03-06T14:20:45.283Z,99837.55
2019-03-06T14:23:12.684Z,99834.51
2019-03-06T14:25:39.915Z,99830.81
2019-03-06T14:28:07.094Z,99827.92
2019-03-06T14:30:34.707Z,99818.17
2019-03-06T14:33:02.092Z,99816.54
2019-03-06T14:35:29.285Z,99814.36
2019-03-06T14:37:56.510Z,99808.27
2019-03-06T14:40:26.657Z,99792.11
2019-03-06T14:42:53.838Z,99778.95
2019-03-06T14:45:21.000Z,99773.22
2019-03-06T14:47:48.224Z,99772.39
2019-03-06T14:50:15.424Z,99773.59
2019-03-06T14:52:42.576Z,99761.77
2019-03-06T14:55:10.459Z,99755.36
2019-03-06T14:57:37.782Z,99747.86
2019-03-06T15:00:05.170Z,99741.28
2019-03-06T15:02:32.529Z,99710.80
2019-03-06T15:04:59.710Z,99725.27
2019-03-06T15:07:27.059Z,99727.37
2019-03-06T15:09:54.210Z,99724.81
2019-03-06T15:12:21.398Z,99717.06
2019-03-06T15:14:48.605Z,99711.80
2019-03-06T15:17:15.825Z,99707.09
2019-03-06T15:19:43.110Z,99704.98
2019-03-06T15:22:10.376Z,99690.84
2019-03-06T15:24:41.323Z,99697.65
2019-03-06T15:27:06.751Z,99675.45
2019-03-06T15:29:34.362Z,99693.47
2019-03-06T15:32:01.561Z,99685.33
2019-03-06T15:34:28.761Z,99695.78
2019-03-06T15:36:55.936Z,99689.11
2019-03-06T15:39:28.036Z,99689.73
2019-03-06T15:42:00.282Z,99680.14
2019-03-06T15:44:24.713Z,99679.35
2019-03-06T15:46:51.927Z,99679.91
2019-03-06T15:49:19.072Z,99678.59
2019-03-06T15:51:46.306Z,99673.71
2019-03-06T15:54:13.573Z,99671.22
2019-03-06T15:56:40.739Z,99662.51
2019-03-06T15:59:14.571Z,99655.87
2019-03-06T16:01:38.040Z,99662.51
2019-03-06T16:04:05.490Z,99666.77
2019-03-06T16:06:32.711Z,99675.27
2019-03-06T16:08:59.911Z,99671.08
2019-03-06T16:11:27.107Z,99674.22
2019-03-06T16:13:54.337Z,99684.28
2019-03-06T16:16:21.574Z,99679.09
2019-03-06T16:18:49.012Z,99674.84
2019-03-06T16:21:16.193Z,99671.83
2019-03-06T16:23:43.446Z,99679.30
2019-03-06T16:26:10.623Z,99675.46
2019-03-06T16:28:37.857Z,99660.59
2019-03-06T16:31:05.058Z,99671.03
2019-03-06T16:33:32.437Z,99664.47
2019-03-06T16:35:59.644Z,99664.53
2019-03-06T16:38:26.869Z,99660.52
2019-03-06T16:40:54.059Z,99658.83
2019-03-06T16:43:21.282Z,99658.52
2019-03-06T16:45:48.491Z,99658.45
2019-03-06T16:48:15.680Z,99647.01
2019-03-06T16:50:47.425Z,99648.88
2019-03-06T16:53:14.607Z,99661.59
2019-03-06T16:55:41.870Z,99657.66
2019-03-06T16:58:09.156Z,99657.66
2019-03-06T17:00:37.167Z,99659.90
2019-03-06T17:03:04.367Z,99653.40
2019-03-06T17:05:31.719Z,99652.95
2019-03-06T17:07:58.918Z,99652.02
2019-03-06T17:10:26.248Z,99653.33
2019-03-06T17:12:53.430Z,99654.64
2019-03-06T17:15:22.624Z,99651.64
2019-03-06T17:17:49.793Z,99646.96
2019-03-06T17:20:18.953Z,99655.64
2019-03-06T17:22:46.667Z,99650.80
2019-03-06T17:25:14.075Z,99649.48
2019-03-06T17:27:41.295Z,99648.28
2019-03-06T17:30:10.808Z,99649.66
2019-03-06T17:32:49.115Z,99640.98
2019-03-06T17:35:16.307Z,99646.62
2019-03-06T17:37:43.504Z,99646.62
2019-03-06T17:40:10.829Z,99646.78
2019-03-06T17:42:38.008Z,99641.59
2019-03-06T17:45:05.242Z,99637.41
2019-03-06T17:47:32.382Z,99636.96
2019-03-06T17:49:59.595Z,99636.96
2019-03-06T17:52:26.863Z,99633.54
2019-03-06T17:54:54.287Z,99633.54
2019-03-06T17:57:21.481Z,99616.59
2019-03-06T17:59:48.669Z,99613.14
2019-03-06T18:02:15.837Z,99607.58
2019-03-06T18:04:43.055Z,99599.22
2019-03-06T18:07:10.243Z,99601.45
2019-03-06T18:09:37.466Z,99589.70
2019-03-06T18:12:04.970Z,99588.87
2019-03-06T18:14:32.163Z,99592.81
2019-03-06T18:16:59.358Z,99594.03
2019-03-06T18:19:26.577Z,99575.19
2019-03-06T18:21:53.804Z,99586.31
2019-03-06T18:24:20.971Z,99588.02
2019-03-06T18:26:48.179Z,99577.06
2019-03-06T18:29:15.775Z,99573.02
2019-03-06T18:31:43.071Z,99578.69
2019-03-06T18:34:10.314Z,99576.20
2019-03-06T18:36:37.477Z,99572.25
2019-03-06T18:39:07.997Z,99571.39
2019-03-06T18:41:35.203Z,99564.00
2019-03-06T18:44:02.364Z,99572.80
2019-03-06T18:46:29.664Z,99564.92
2019-03-06T18:48:56.895Z,99561.38
2019-03-06T18:51:24.050Z,99568.86
2019-03-06T18:53:52.680Z,99564.06
2019-03-06T18:56:20.027Z,99559.74
2019-03-06T18:58:47.196Z,99561.57
2019-03-06T19:01:14.565Z,99557.19
2019-03-06T19:03:43.230Z,99555.48
2019-03-06T19:06:10.502Z,99552.45
2019-03-06T19:08:40.521Z,99549.00
2019-03-06T19:11:16.614Z,99554.63
2019-03-06T19:13:37.165Z,99547.17
2019-03-06T19:16:04.492Z,99540.19
2019-03-06T19:18:32.127Z,99544.37
2019-03-06T19:20:59.343Z,99541.36
2019-03-06T19:23:26.667Z,99543.99
2019-03-06T19:25:55.520Z,99542.67
2019-03-06T19:28:22.836Z,99546.62
2019-03-06T19:30:55.486Z,99539.60
2019-03-06T19:33:25.057Z,99532.55
2019-03-06T19:35:52.529Z,99534.66
2019-03-06T19:38:19.830Z,99524.53
2019-03-06T19:40:47.056Z,99517.59
2019-03-06T19:43:14.592Z,99528.58
2019-03-06T19:45:41.817Z,99518.97
2019-03-06T19:48:08.995Z,99517.83
2019-03-06T19:50:36.226Z,99510.88
2019-03-06T19:53:03.641Z,99505.45
2019-03-06T19:55:30.886Z,99500.75
2019-03-06T19:58:02.643Z,99496.26
2019-03-06T20:00:29.979Z,99494.02
2019-03-06T20:02:57.569Z,99490.94
2019-03-06T20:05:27.153Z,99487.30
2019-03-06T20:07:54.395Z,99488.17
2019-03-06T20:10:21.962Z,99492.18
2019-03-06T20:12:49.254Z,99481.53
2019-03-06T20:15:17.182Z,99469.22
2019-03-06T20:17:44.434Z,99478.11
2019-03-06T20:20:11.662Z,99468.61
2019-03-06T20:22:38.974Z,99468.16
2019-03-06T20:25:06.155Z,99474.00
2019-03-06T20:27:33.736Z,99463.35
2019-03-06T20:30:00.879Z,99464.22
2019-03-06T20:32:28.065Z,99460.28
2019-03-06T20:34:55.335Z,99456.16
2019-03-06T20:37:22.601Z,99451.84
2019-03-06T20:39:50.010Z,99444.05
2019-03-06T20:42:17.291Z,99442.17
2019-03-06T20:44:44.467Z,99444.80
2019-03-06T20:47:11.974Z,99428.81
2019-03-06T20:49:39.137Z,99437.48
2019-03-06T20:52:06.353Z,99438.80
2019-03-06T20:54:33.503Z,99428.36
2019-03-06T20:57:01.068Z,99435.86
2019-03-06T20:59:28.359Z,99432.23
2019-03-06T21:01:55.721Z,99427.98
2019-03-06T21:04:23.110Z,99419.62
2019-03-06T21:06:50.274Z,99422.73
2019-03-06T21:09:17.431Z,99425.73
2019-03-06T21:11:44.850Z,99421.72
2019-03-06T21:14:12.067Z,99421.34
2019-03-06T21:16:39.235Z,99420.78
2019-03-06T21:19:06.519Z,99418.32
2019-03-06T21:21:33.952Z,99421.40
2019-03-06T21:24:01.176Z,99421.88
2019-03-06T21:26:28.514Z,99418.77
2019-03-06T21:28:55.951Z,99417.84
2019-03-06T21:31:23.102Z,99406.50
2019-03-06T21:33:50.294Z,99412.20
2019-03-06T21:36:17.694Z,99403.95
2019-03-06T21:38:44.838Z,99406.13
2019-03-06T21:41:12.076Z,99408.34
2019-03-06T21:43:39.289Z,99401.25
2019-03-06T21:46:06.535Z,99403.95
2019-03-06T21:48:33.920Z,99408.82
2019-03-06T21:51:01.094Z,99395.69
2019-03-06T21:53:28.347Z,99399.07
2019-03-06T21:55:55.587Z,99400.39
2019-03-06T21:58:22.768Z,99400.77
2019-03-06T22:00:49.988Z,99400.77
2019-03-06T22:03:17.207Z,99396.06
2019-03-06T22:05:44.611Z,99391.19
2019-03-06T22:08:11.798Z,99385.48
2019-03-06T22:10:38.996Z,99393.30
2019-03-06T22:13:06.379Z,99386.17
2019-03-06T22:15:33.543Z,99386.17
2019-03-06T22:18:00.855Z,99378.29
2019-03-06T22:20:28.278Z,99377.35
2019-03-06T22:22:55.615Z,99380.69
2019-03-06T22:25:22.803Z,99370.64
2019-03-06T22:27:50.008Z,99374.83
2019-03-06T22:30:17.333Z,99364.55
2019-03-06T22:32:44.550Z,99360.68
2019-03-06T22:35:11.917Z,99361.77
2019-03-06T22:37:39.259Z,99359.67
2019-03-06T22:40:06.804Z,99359.21
2019-03-06T22:42:34.206Z,99361.95
2019-03-06T22:45:01.359Z,99364.95
2019-03-06T22:47:28.620Z,99356.58
2019-03-06T22:49:55.774Z,99354.89
2019-03-06T22:52:23.180Z,99353.20
2019-03-06T22:54:50.426Z,99354.89
2019-03-06T22:57:17.627Z,99350.65
2019-03-06T22:59:44.822Z,99348.48
2019-03-06T23:02:12.023Z,99348.09
2019-03-06T23:04:39.412Z,99346.78
2019-03-06T23:07:06.870Z,99343.22
2019-03-06T23:09:34.086Z,99344.09
2019-03-06T23:12:01.275Z,99341.53
2019-03-06T23:14:28.626Z,99341.16
2019-03-06T23:16:55.813Z,99336.77
2019-03-06T23:19:22.999Z,99339.47
2019-03-06T23:21:50.208Z,99339.47
2019-03-06T23:24:17.386Z,99328.41
2019-03-06T23:26:44.609Z,99333.96
2019-03-06T23:29:11.800Z,99326.00
2019-03-06T23:31:39.293Z,99320.00
2019-03-06T23:34:06.515Z,99326.00
2019-03-06T23:36:33.748Z,99319.44
2019-03-06T23:39:01.071Z,99324.77
2019-03-06T23:41:28.267Z,99323.94
2019-03-06T23:43:58.234Z,99314.27
2019-03-06T23:46:25.490Z,99316.81
2019-03-06T23:48:52.689Z,99308.94
2019-03-06T23:51:27.879Z,99309.72
2019-03-06T23:53:55.394Z,99300.91
2019-03-06T23:56:22.628Z,99298.95
2019-03-06T23:58:49.939Z,99302.67
